createdAt,value
2019-03-28T00:02:05.135Z,98915.45
2019-03-28T00:05:10.169Z,98919.25
2019-03-28T00:08:17.400Z,98926.02
2019-03-28T00:11:22.629Z,98923.58
2019-03-28T00:14:27.295Z,98916.78
2019-03-28T00:17:32.295Z,98917.59
2019-03-28T00:20:37.292Z,98914.61
2019-03-28T00:23:46.472Z,98912.47
2019-03-28T00:26:51.458Z,98915.98
2019-03-28T00:29:56.300Z,98912.43
2019-03-28T00:33:01.045Z,98916.00
2019-03-28T00:36:06.278Z,98918.14
2019-03-28T00:39:12.628Z,98911.87
2019-03-28T00:42:17.706Z,98911.34
2019-03-28T00:45:22.750Z,98911.05
2019-03-28T00:48:27.221Z,98917.33
2019-03-28T00:51:32.564Z,98911.59
2019-03-28T00:54:37.902Z,98913.47
2019-03-28T00:57:42.575Z,98893.68
2019-03-28T01:00:47.705Z,98893.68
2019-03-28T01:03:52.294Z,98910.20
2019-03-28T01:06:57.211Z,98914.27
2019-03-28T01:10:02.074Z,98911.89
2019-03-28T01:13:07.273Z,98915.64
2019-03-28T01:16:12.279Z,98915.08
2019-03-28T01:19:17.311Z,98918.59
2019-03-28T01:22:22.321Z,98917.79
2019-03-28T01:25:27.674Z,98912.14
2019-03-28T01:28:31.867Z,98909.75
2019-03-28T01:31:37.688Z,98911.64
2019-03-28T01:34:42.536Z,98911.64
2019-03-28T01:37:47.582Z,98914.63
2019-03-28T01:40:52.299Z,98917.59
2019-03-28T01:43:57.123Z,98911.63
2019-03-28T01:47:02.364Z,98910.28
2019-03-28T01:50:07.752Z,98913.00
2019-03-28T01:53:12.288Z,98902.38
2019-03-28T01:56:17.255Z,98903.50
2019-03-28T01:59:22.433Z,98905.64
2019-03-28T02:02:27.374Z,98901.30
2019-03-28T02:05:32.344Z,98902.64
2019-03-28T02:08:37.179Z,98903.45
2019-03-28T02:11:41.893Z,98906.73
2019-03-28T02:14:47.951Z,98885.28
2019-03-28T02:17:54.413Z,98906.73
2019-03-28T02:20:59.951Z,98906.73
2019-03-28T02:24:05.394Z,98904.56
2019-03-28T02:27:23.080Z,98913.27
2019-03-28T02:30:20.533Z,98898.59
2019-03-28T02:33:25.794Z,98912.69
2019-03-28T02:36:31.074Z,98917.58
2019-03-28T02:39:36.266Z,98905.96
2019-03-28T02:42:41.287Z,98917.62
2019-03-28T02:45:46.625Z,98914.64
2019-03-28T02:48:51.329Z,98913.02
2019-03-28T02:51:56.084Z,98908.66
2019-03-28T02:55:02.972Z,98907.31
2019-03-28T02:58:07.540Z,98901.86
2019-03-28T03:01:12.811Z,98895.88
2019-03-28T03:04:17.419Z,98896.68
2019-03-28T03:07:22.270Z,98886.91
2019-03-28T03:10:27.353Z,98891.55
2019-03-28T03:13:32.164Z,98888.56
2019-03-28T03:16:37.682Z,98890.20
2019-03-28T03:19:41.670Z,98894.54
2019-03-28T03:22:46.312Z,98902.41
2019-03-28T03:25:51.073Z,98899.41
2019-03-28T03:28:55.969Z,98904.33
2019-03-28T03:32:00.783Z,98901.06
2019-03-28T03:35:05.880Z,98904.88
2019-03-28T03:38:10.912Z,98886.68
2019-03-28T03:41:15.792Z,98903.48
2019-03-28T03:44:20.619Z,98903.48
2019-03-28T03:47:25.283Z,98907.00
2019-03-28T03:50:30.657Z,98906.75
2019-03-28T03:53:34.860Z,98907.04
2019-03-28T03:56:39.700Z,98910.02
2019-03-28T03:59:44.012Z,98910.02
2019-03-28T04:02:49.317Z,98908.65
2019-03-28T04:05:54.533Z,98908.39
2019-03-28T04:09:01.460Z,98915.44
2019-03-28T04:12:06.939Z,98923.05
2019-03-28T04:15:11.493Z,98921.94
2019-03-28T04:18:16.784Z,98929.25
2019-03-28T04:21:21.983Z,98934.68
2019-03-28T04:24:26.733Z,98933.34
2019-03-28T04:27:31.058Z,98930.36
2019-03-28T04:30:36.302Z,98931.98
2019-03-28T04:33:41.484Z,98933.06
2019-03-28T04:36:46.362Z,98941.23
2019-03-28T04:39:51.555Z,98942.03
2019-03-28T04:42:56.335Z,98953.44
2019-03-28T04:46:01.355Z,98945.54
2019-03-28T04:49:06.702Z,98952.05
2019-03-28T04:52:10.920Z,98949.87
2019-03-28T04:55:16.240Z,98948.82
2019-03-28T04:58:21.929Z,98949.89
2019-03-28T05:01:27.668Z,98948.00
2019-03-28T05:04:32.559Z,98950.70
2019-03-28T05:07:37.899Z,98956.13
2019-03-28T05:10:42.986Z,98939.60
2019-03-28T05:13:48.297Z,98939.60
2019-03-28T05:16:55.671Z,98948.24
2019-03-28T05:20:00.660Z,98961.83
2019-03-28T05:23:04.860Z,98963.47
2019-03-28T05:26:09.761Z,98943.10
2019-03-28T05:29:13.904Z,98943.10
2019-03-28T05:32:18.703Z,98956.91
2019-03-28T05:35:22.626Z,98956.91
2019-03-28T05:38:28.282Z,98955.80
2019-03-28T05:41:33.750Z,98956.34
2019-03-28T05:44:41.490Z,98950.63
2019-03-28T05:47:46.568Z,98950.63
2019-03-28T05:50:51.319Z,98966.86
2019-03-28T05:53:56.315Z,98965.19
2019-03-28T05:57:01.308Z,98964.63
2019-03-28T06:00:08.095Z,98964.61
2019-03-28T06:03:12.910Z,98970.55
2019-03-28T06:06:18.984Z,98977.57
2019-03-28T06:09:24.443Z,98977.57
2019-03-28T06:12:29.662Z,98972.89
2019-03-28T06:15:35.321Z,98979.95
2019-03-28T06:18:40.425Z,98979.95
2019-03-28T06:21:45.431Z,98978.06
2019-03-28T06:24:50.496Z,98982.22
2019-03-28T06:27:55.840Z,98979.72
2019-03-28T06:31:00.635Z,98989.84
2019-03-28T06:34:05.724Z,98989.84
2019-03-28T06:37:11.028Z,98986.91
2019-03-28T06:40:17.730Z,98988.00
2019-03-28T06:43:23.260Z,98990.72
2019-03-28T06:46:27.948Z,98994.20
2019-03-28T06:49:34.680Z,98991.83
2019-03-28T06:52:39.567Z,98993.45
2019-03-28T06:55:44.513Z,98994.30
2019-03-28T06:58:49.411Z,98998.52
2019-03-28T07:01:54.384Z,99002.54
2019-03-28T07:05:00.409Z,98995.86
2019-03-28T07:08:05.488Z,98997.36
2019-03-28T07:11:10.296Z,99000.77
2019-03-28T07:14:15.324Z,99001.42
2019-03-28T07:17:20.316Z,99001.75
2019-03-28T07:20:26.344Z,99006.14
2019-03-28T07:23:31.575Z,99012.36
2019-03-28T07:26:36.846Z,99004.19
2019-03-28T07:29:50.687Z,99013.23
2019-03-28T07:32:49.272Z,99013.23
2019-03-28T07:35:54.622Z,99015.35
2019-03-28T07:38:59.408Z,99014.80
2019-03-28T07:42:04.141Z,99011.31
2019-03-28T07:45:10.267Z,99015.05
2019-03-28T07:48:15.578Z,99013.33
2019-03-28T07:51:20.466Z,99012.89
2019-03-28T07:54:25.276Z,99009.41
2019-03-28T07:57:30.299Z,99001.78
2019-03-28T08:00:35.325Z,99005.94
2019-03-28T08:03:40.503Z,99011.06
2019-03-28T08:06:50.046Z,99002.28
2019-03-28T08:09:51.938Z,99005.02
2019-03-28T08:12:57.394Z,98997.97
2019-03-28T08:16:02.593Z,98998.58
2019-03-28T08:19:08.423Z,99006.17
2019-03-28T08:22:13.245Z,99016.74
2019-03-28T08:25:17.968Z,99010.33
2019-03-28T08:28:23.257Z,99012.89
2019-03-28T08:31:28.517Z,99010.35
2019-03-28T08:34:33.615Z,99023.02
2019-03-28T08:37:40.915Z,99013.94
2019-03-28T08:40:45.526Z,99013.02
2019-03-28T08:43:50.341Z,99015.54
2019-03-28T08:46:55.332Z,99022.67
2019-03-28T08:50:00.425Z,99017.92
2019-03-28T08:53:04.852Z,99012.00
2019-03-28T08:56:09.743Z,99011.80
2019-03-28T08:59:14.834Z,99011.80
2019-03-28T09:02:19.745Z,99020.54
2019-03-28T09:05:23.888Z,99020.54
2019-03-28T09:08:28.576Z,99026.63
2019-03-28T09:11:33.678Z,99026.63
2019-03-28T09:14:38.384Z,99019.77
2019-03-28T09:17:43.274Z,99019.94
2019-03-28T09:20:48.297Z,99016.33
2019-03-28T09:23:53.310Z,99010.48
2019-03-28T09:26:58.444Z,99011.99
2019-03-28T09:30:03.297Z,99006.02
2019-03-28T09:33:07.914Z,98997.75
2019-03-28T09:36:12.520Z,99007.58
2019-03-28T09:39:17.246Z,99001.46
2019-03-28T09:42:22.000Z,98994.87
2019-03-28T09:45:26.733Z,98995.12
2019-03-28T09:48:30.658Z,98995.48
2019-03-28T09:51:38.102Z,98994.78
2019-03-28T09:54:43.010Z,98990.81
2019-03-28T09:57:49.337Z,98990.81
2019-03-28T10:01:02.805Z,98994.97
2019-03-28T10:04:01.731Z,99001.27
2019-03-28T10:07:07.354Z,98994.30
2019-03-28T10:10:13.775Z,99001.92
2019-03-28T10:13:19.386Z,99000.45
2019-03-28T10:16:24.405Z,99002.66
2019-03-28T10:19:29.328Z,98996.34
2019-03-28T10:22:34.339Z,99001.97
2019-03-28T10:25:39.471Z,98988.50
2019-03-28T10:28:45.358Z,98988.66
2019-03-28T10:31:50.570Z,98989.85
2019-03-28T10:34:55.254Z,98981.03
2019-03-28T10:38:00.174Z,98984.64
2019-03-28T10:41:05.133Z,98989.25
2019-03-28T10:44:10.493Z,98994.36
2019-03-28T10:47:15.747Z,98988.81
2019-03-28T10:50:20.976Z,98982.34
2019-03-28T10:53:25.641Z,98982.34
2019-03-28T10:56:30.335Z,98986.15
2019-03-28T10:59:35.411Z,98981.47
2019-03-28T11:02:40.126Z,98990.03
2019-03-28T11:05:44.974Z,98980.69
2019-03-28T11:08:51.308Z,98990.78
2019-03-28T11:11:56.680Z,98988.34
2019-03-28T11:15:01.897Z,98982.13
2019-03-28T11:18:07.419Z,98988.05
2019-03-28T11:21:12.357Z,98982.31
2019-03-28T11:24:17.138Z,98972.19
2019-03-28T11:27:21.936Z,98974.95
2019-03-28T11:30:26.960Z,98970.88
2019-03-28T11:33:32.325Z,98970.88
2019-03-28T11:36:37.946Z,98971.63
2019-03-28T11:39:44.612Z,98981.80
2019-03-28T11:42:51.906Z,98974.38
2019-03-28T11:45:55.613Z,98973.70
2019-03-28T11:49:00.627Z,98974.75
2019-03-28T11:52:06.140Z,98958.52
2019-03-28T11:55:11.056Z,98958.52
2019-03-28T11:58:16.015Z,98966.27
2019-03-28T12:01:21.287Z,98960.19
2019-03-28T12:04:25.971Z,98959.38
2019-03-28T12:07:30.731Z,98962.34
2019-03-28T12:11:04.289Z,98959.27
2019-03-28T12:14:09.781Z,98955.31
2019-03-28T12:17:14.530Z,98941.00
2019-03-28T12:20:19.441Z,98941.00
2019-03-28T12:23:24.237Z,98939.45
2019-03-28T12:26:33.625Z,98944.14
2019-03-28T12:29:38.256Z,98953.11
2019-03-28T12:32:43.327Z,98952.54
2019-03-28T12:35:49.393Z,98955.72
2019-03-28T12:38:54.697Z,98953.12
2019-03-28T12:42:00.266Z,98950.63
2019-03-28T12:45:12.986Z,98950.98
2019-03-28T12:48:17.771Z,98952.84
2019-03-28T12:51:23.811Z,98934.59
2019-03-28T12:54:28.797Z,98943.83
2019-03-28T12:57:33.975Z,98943.83
2019-03-28T13:00:38.710Z,98940.02
2019-03-28T13:03:45.882Z,98945.12
2019-03-28T13:06:49.290Z,98948.05
2019-03-28T13:09:53.967Z,98945.85
2019-03-28T13:12:59.260Z,98942.37
2019-03-28T13:16:05.433Z,98942.37
2019-03-28T13:19:11.378Z,98938.47
2019-03-28T13:22:16.590Z,98933.98
2019-03-28T13:25:21.295Z,98941.56
2019-03-28T13:28:26.562Z,98938.34
2019-03-28T13:31:31.412Z,98941.56
2019-03-28T13:34:36.781Z,98932.58
2019-03-28T13:37:42.300Z,98941.19
2019-03-28T13:40:47.340Z,98936.56
2019-03-28T13:43:52.959Z,98937.08
2019-03-28T13:46:58.656Z,98932.00
2019-03-28T13:50:04.957Z,98944.84
2019-03-28T13:53:10.594Z,98936.63
2019-03-28T13:56:15.808Z,98936.53
2019-03-28T13:59:21.028Z,98941.43
2019-03-28T14:02:29.471Z,98941.43
2019-03-28T14:05:34.403Z,98940.83
2019-03-28T14:08:39.676Z,98948.97
2019-03-28T14:11:45.919Z,98950.55
2019-03-28T14:14:50.972Z,98950.55
2019-03-28T14:17:56.255Z,98952.04
2019-03-28T14:21:01.926Z,98947.94
2019-03-28T14:24:07.334Z,98950.30
2019-03-28T14:27:12.578Z,98946.83
2019-03-28T14:30:20.490Z,98944.10
2019-03-28T14:33:27.326Z,98942.04
2019-03-28T14:36:33.075Z,98939.63
2019-03-28T14:39:39.461Z,98949.06
2019-03-28T14:42:46.288Z,98953.08
2019-03-28T14:45:52.267Z,98953.14
2019-03-28T14:48:57.347Z,98948.83
2019-03-28T14:52:02.279Z,98954.34
2019-03-28T14:55:07.294Z,98949.32
2019-03-28T14:58:12.058Z,98953.07
2019-03-28T15:01:17.791Z,98958.09
2019-03-28T15:04:22.704Z,98956.39
2019-03-28T15:07:27.298Z,98949.87
2019-03-28T15:10:32.428Z,98957.82
2019-03-28T15:13:40.367Z,98958.58
2019-03-28T15:16:43.708Z,98951.38
2019-03-28T15:19:48.310Z,98958.67
2019-03-28T15:22:54.281Z,98950.23
2019-03-28T15:26:00.438Z,98943.75
2019-03-28T15:29:06.951Z,98942.11
2019-03-28T15:32:11.574Z,98941.32
2019-03-28T15:35:16.822Z,98940.70
2019-03-28T15:38:21.879Z,98939.33
2019-03-28T15:41:26.932Z,98911.27
2019-03-28T15:44:31.900Z,98911.27
2019-03-28T15:47:36.686Z,98918.45
2019-03-28T15:50:41.269Z,98918.45
2019-03-28T15:53:46.403Z,98947.45
2019-03-28T15:56:51.735Z,98949.52
2019-03-28T15:59:55.713Z,98947.18
2019-03-28T16:02:59.635Z,98946.39
2019-03-28T16:06:04.504Z,98946.94
2019-03-28T16:09:09.497Z,98941.92
2019-03-28T16:12:15.195Z,98947.89
2019-03-28T16:15:22.443Z,98945.05
2019-03-28T16:18:26.695Z,98939.99
2019-03-28T16:21:32.391Z,98948.73
2019-03-28T16:24:37.525Z,98942.27
2019-03-28T16:27:43.115Z,98944.20
2019-03-28T16:30:47.750Z,98943.11
2019-03-28T16:34:05.897Z,98932.86
2019-03-28T16:36:58.951Z,98939.25
2019-03-28T16:40:04.124Z,98943.14
2019-03-28T16:43:09.587Z,98943.14
2019-03-28T16:46:16.884Z,98939.19
2019-03-28T16:49:21.730Z,98933.30
2019-03-28T16:52:26.326Z,98933.30
2019-03-28T16:55:31.525Z,98947.86
2019-03-28T16:58:37.896Z,98954.11
2019-03-28T17:01:42.624Z,98950.22
2019-03-28T17:04:47.654Z,98950.70
2019-03-28T17:07:52.689Z,98948.14
2019-03-28T17:10:57.633Z,98947.42
2019-03-28T17:14:02.809Z,98948.08
2019-03-28T17:17:08.824Z,98948.08
2019-03-28T17:20:15.091Z,98949.06
2019-03-28T17:23:22.905Z,98951.58
2019-03-28T17:26:28.312Z,98935.68
2019-03-28T17:29:33.428Z,98935.68
2019-03-28T17:32:38.862Z,98965.61
2019-03-28T17:35:45.630Z,98976.75
2019-03-28T17:38:52.401Z,98981.36
2019-03-28T17:41:57.923Z,98979.83
2019-03-28T17:45:03.402Z,98977.14
2019-03-28T17:48:08.309Z,98969.83
2019-03-28T17:51:13.991Z,98970.49
2019-03-28T17:54:19.562Z,98972.52
2019-03-28T17:57:25.714Z,98973.73
2019-03-28T18:00:33.488Z,98983.03
2019-03-28T18:03:38.833Z,98978.33
2019-03-28T18:06:44.304Z,98957.58
2019-03-28T18:09:51.215Z,98957.58
2019-03-28T18:12:57.270Z,98978.94
2019-03-28T18:16:02.591Z,98984.09
2019-03-28T18:19:08.103Z,98992.73
2019-03-28T18:22:13.566Z,98985.45
2019-03-28T18:25:18.289Z,98991.09
2019-03-28T18:28:23.733Z,98994.83
2019-03-28T18:31:28.074Z,98996.85
2019-03-28T18:34:34.246Z,99007.95
2019-03-28T18:37:39.387Z,99005.64
2019-03-28T18:40:44.483Z,99012.61
2019-03-28T18:43:49.818Z,99011.39
2019-03-28T18:46:54.971Z,99014.09
2019-03-28T18:50:03.140Z,99014.31
2019-03-28T18:53:05.952Z,99016.31
2019-03-28T18:56:11.835Z,99018.53
2019-03-28T18:59:18.253Z,99009.38
2019-03-28T19:02:23.134Z,99009.38
2019-03-28T19:05:28.253Z,99024.67
2019-03-28T19:08:35.460Z,99032.98
2019-03-28T19:11:40.989Z,99041.37
2019-03-28T19:14:48.324Z,99038.09
2019-03-28T19:17:53.459Z,99040.00
2019-03-28T19:20:59.162Z,99038.67
2019-03-28T19:24:04.293Z,99036.34
2019-03-28T19:27:10.912Z,99043.94
2019-03-28T19:30:20.629Z,99040.31
2019-03-28T19:33:27.544Z,99043.55
2019-03-28T19:36:33.809Z,99043.55
2019-03-28T19:39:39.328Z,99047.83
2019-03-28T19:42:44.346Z,99047.83
2019-03-28T19:45:54.463Z,99039.45
2019-03-28T19:48:59.297Z,99038.63
2019-03-28T19:52:04.297Z,99037.81
2019-03-28T19:55:09.520Z,99038.35
2019-03-28T19:58:14.683Z,99036.09
2019-03-28T20:01:21.374Z,99034.30
2019-03-28T20:04:28.601Z,99038.94
2019-03-28T20:07:33.371Z,99041.19
2019-03-28T20:10:38.254Z,99039.04
2019-03-28T20:13:44.585Z,99034.98
2019-03-28T20:16:50.278Z,99032.87
2019-03-28T20:19:57.470Z,99028.47
2019-03-28T20:23:02.424Z,99027.96
2019-03-28T20:26:07.789Z,99028.50
2019-03-28T20:29:13.055Z,99023.45
2019-03-28T20:32:19.302Z,99028.66
2019-03-28T20:35:24.605Z,99027.69
2019-03-28T20:38:29.926Z,99024.17
2019-03-28T20:41:36.017Z,99026.26
2019-03-28T20:44:41.712Z,99021.94
2019-03-28T20:47:47.980Z,99027.96
2019-03-28T20:50:52.956Z,99030.75
2019-03-28T20:53:58.031Z,99032.63
2019-03-28T20:57:03.951Z,99035.08
2019-03-28T21:00:09.156Z,99033.45
2019-03-28T21:03:15.154Z,99035.72
2019-03-28T21:06:20.623Z,99038.71
2019-03-28T21:09:25.728Z,99040.05
2019-03-28T21:12:31.333Z,99036.83
2019-03-28T21:15:36.381Z,99035.11
2019-03-28T21:18:41.341Z,99034.29
2019-03-28T21:21:48.107Z,99035.20
2019-03-28T21:24:53.446Z,99036.42
2019-03-28T21:27:59.741Z,99039.50
2019-03-28T21:31:06.492Z,99037.67
2019-03-28T21:34:11.500Z,99033.67
2019-03-28T21:37:16.510Z,99035.58
2019-03-28T21:40:23.016Z,99036.96
2019-03-28T21:43:30.709Z,99035.08
2019-03-28T21:46:37.103Z,99012.66
2019-03-28T21:49:43.599Z,99012.66
2019-03-28T21:52:48.291Z,99027.17
2019-03-28T21:55:57.194Z,99027.75
2019-03-28T21:59:01.528Z,99034.72
2019-03-28T22:02:06.807Z,99030.66
2019-03-28T22:05:10.630Z,99034.17
2019-03-28T22:08:20.332Z,99031.75
2019-03-28T22:11:25.266Z,99027.91
2019-03-28T22:14:31.128Z,99031.23
2019-03-28T22:17:35.735Z,99029.54
2019-03-28T22:20:40.137Z,99036.08
2019-03-28T22:23:44.972Z,99026.54
2019-03-28T22:26:51.272Z,99024.87
2019-03-28T22:29:57.559Z,99026.52
2019-03-28T22:33:03.528Z,99027.36
2019-03-28T22:36:09.442Z,99027.72
2019-03-28T22:39:14.323Z,99030.59
2019-03-28T22:42:19.337Z,99035.74
2019-03-28T22:45:24.423Z,99027.20
2019-03-28T22:48:29.464Z,99028.05
2019-03-28T22:51:34.631Z,99024.72
2019-03-28T22:54:39.356Z,99026.59
2019-03-28T22:57:44.293Z,99027.36
2019-03-28T23:00:51.615Z,99031.96
2019-03-28T23:03:56.333Z,99025.99
2019-03-28T23:07:10.970Z,99032.25
2019-03-28T23:10:10.969Z,99034.32
2019-03-28T23:13:16.331Z,99032.41
2019-03-28T23:16:21.171Z,99036.80
2019-03-28T23:19:26.303Z,99038.44
2019-03-28T23:22:31.028Z,99036.39
2019-03-28T23:25:36.911Z,99038.38
2019-03-28T23:28:41.984Z,99041.84
2019-03-28T23:31:47.063Z,99042.88
2019-03-28T23:34:52.349Z,99043.95
2019-03-28T23:37:56.975Z,99043.07
2019-03-28T23:41:02.372Z,99050.97
2019-03-28T23:44:07.308Z,99042.53
2019-03-28T23:47:13.367Z,99042.23
2019-03-28T23:50:18.749Z,99047.67
2019-03-28T23:53:22.648Z,99040.05
2019-03-28T23:56:27.365Z,99037.32
2019-03-28T23:59:32.302Z,99036.69
